sensor_id;sensor_type;location;lat;lon;timestamp;P1;durP1;ratioP1;P2;durP2;ratioP2
32780;SDS011;19136;47.032;15.502;2023-07-16T00:00:03;12.80;;;9.88;;
32780;SDS011;19136;47.032;15.502;2023-07-16T00:02:31;15.40;;;9.70;;
32780;SDS011;19136;47.032;15.502;2023-07-16T00:04:57;18.33;;;10.20;;
32780;SDS011;19136;47.032;15.502;2023-07-16T00:07:22;16.23;;;10.13;;
32780;SDS011;19136;47.032;15.502;2023-07-16T00:09:48;22.88;;;10.75;;
32780;SDS011;19136;47.032;15.502;2023-07-16T00:12:13;15.32;;;9.77;;
32780;SDS011;19136;47.032;15.502;2023-07-16T00:14:39;11.60;;;9.43;;
32780;SDS011;19136;47.032;15.502;2023-07-16T00:17:04;17.38;;;10.23;;
32780;SDS011;19136;47.032;15.502;2023-07-16T00:19:30;18.88;;;10.32;;
32780;SDS011;19136;47.032;15.502;2023-07-16T00:21:55;17.77;;;9.52;;
32780;SDS011;19136;47.032;15.502;2023-07-16T00:24:21;16.20;;;9.45;;
32780;SDS011;19136;47.032;15.502;2023-07-16T00:26:47;16.52;;;10.48;;
32780;SDS011;19136;47.032;15.502;2023-07-16T00:29:12;14.35;;;10.50;;
32780;SDS011;19136;47.032;15.502;2023-07-16T00:31:38;17.25;;;9.98;;
32780;SDS011;19136;47.032;15.502;2023-07-16T00:34:03;19.48;;;10.43;;
32780;SDS011;19136;47.032;15.502;2023-07-16T00:36:29;13.70;;;9.68;;
32780;SDS011;19136;47.032;15.502;2023-07-16T00:38:54;24.40;;;10.85;;
32780;SDS011;19136;47.032;15.502;2023-07-16T00:41:20;17.95;;;9.50;;
32780;SDS011;19136;47.032;15.502;2023-07-16T00:43:46;17.63;;;10.52;;
32780;SDS011;19136;47.032;15.502;2023-07-16T00:46:11;11.68;;;9.07;;
32780;SDS011;19136;47.032;15.502;2023-07-16T00:48:37;17.63;;;10.63;;
32780;SDS011;19136;47.032;15.502;2023-07-16T00:51:06;16.00;;;10.38;;
32780;SDS011;19136;47.032;15.502;2023-07-16T00:53:32;18.13;;;10.32;;
32780;SDS011;19136;47.032;15.502;2023-07-16T00:55:57;20.73;;;10.82;;
32780;SDS011;19136;47.032;15.502;2023-07-16T00:58:23;15.23;;;10.70;;
32780;SDS011;19136;47.032;15.502;2023-07-16T01:00:49;18.08;;;10.23;;
32780;SDS011;19136;47.032;15.502;2023-07-16T01:03:14;15.95;;;10.30;;
32780;SDS011;19136;47.032;15.502;2023-07-16T01:08:20;19.42;;;10.27;;
32780;SDS011;19136;47.032;15.502;2023-07-16T01:11:00;18.35;;;10.30;;
32780;SDS011;19136;47.032;15.502;2023-07-16T01:13:29;17.02;;;11.02;;
32780;SDS011;19136;47.032;15.502;2023-07-16T01:15:55;21.90;;;10.75;;
32780;SDS011;19136;47.032;15.502;2023-07-16T01:18:20;18.95;;;10.27;;
32780;SDS011;19136;47.032;15.502;2023-07-16T01:20:46;16.98;;;10.00;;
32780;SDS011;19136;47.032;15.502;2023-07-16T01:29:02;18.92;;;10.07;;
32780;SDS011;19136;47.032;15.502;2023-07-16T01:31:46;20.90;;;10.60;;
32780;SDS011;19136;47.032;15.502;2023-07-16T01:34:15;17.50;;;11.55;;
32780;SDS011;19136;47.032;15.502;2023-07-16T01:36:41;19.33;;;10.82;;
32780;SDS011;19136;47.032;15.502;2023-07-16T01:39:07;14.80;;;10.93;;
32780;SDS011;19136;47.032;15.502;2023-07-16T01:41:33;22.10;;;11.48;;
32780;SDS011;19136;47.032;15.502;2023-07-16T01:43:58;19.92;;;10.95;;
32780;SDS011;19136;47.032;15.502;2023-07-16T01:46:24;23.70;;;12.05;;
32780;SDS011;19136;47.032;15.502;2023-07-16T01:48:50;19.85;;;10.98;;
32780;SDS011;19136;47.032;15.502;2023-07-16T01:51:16;18.25;;;11.10;;
32780;SDS011;19136;47.032;15.502;2023-07-16T01:53:41;17.33;;;10.75;;
32780;SDS011;19136;47.032;15.502;2023-07-16T01:56:07;20.95;;;12.05;;
32780;SDS011;19136;47.032;15.502;2023-07-16T01:58:33;19.98;;;10.60;;
32780;SDS011;19136;47.032;15.502;2023-07-16T02:00:59;15.82;;;11.15;;
32780;SDS011;19136;47.032;15.502;2023-07-16T02:03:24;18.85;;;11.07;;
32780;SDS011;19136;47.032;15.502;2023-07-16T02:05:50;18.88;;;10.93;;
32780;SDS011;19136;47.032;15.502;2023-07-16T02:08:16;17.58;;;10.98;;
32780;SDS011;19136;47.032;15.502;2023-07-16T02:10:42;16.92;;;11.07;;
32780;SDS011;19136;47.032;15.502;2023-07-16T02:13:10;16.50;;;10.82;;
32780;SDS011;19136;47.032;15.502;2023-07-16T02:15:36;21.73;;;11.10;;
32780;SDS011;19136;47.032;15.502;2023-07-16T02:18:02;14.80;;;10.52;;
32780;SDS011;19136;47.032;15.502;2023-07-16T02:20:29;15.32;;;10.30;;
32780;SDS011;19136;47.032;15.502;2023-07-16T02:22:54;20.10;;;11.80;;
32780;SDS011;19136;47.032;15.502;2023-07-16T02:25:20;19.98;;;11.38;;
32780;SDS011;19136;47.032;15.502;2023-07-16T02:27:46;17.48;;;10.88;;
32780;SDS011;19136;47.032;15.502;2023-07-16T02:30:13;20.23;;;11.13;;
32780;SDS011;19136;47.032;15.502;2023-07-16T02:32:42;20.17;;;11.27;;
32780;SDS011;19136;47.032;15.502;2023-07-16T02:35:08;19.08;;;9.73;;
32780;SDS011;19136;47.032;15.502;2023-07-16T02:37:33;15.27;;;10.90;;
32780;SDS011;19136;47.032;15.502;2023-07-16T02:39:59;19.42;;;11.13;;
32780;SDS011;19136;47.032;15.502;2023-07-16T02:42:25;17.08;;;10.82;;
32780;SDS011;19136;47.032;15.502;2023-07-16T02:44:51;19.10;;;10.35;;
32780;SDS011;19136;47.032;15.502;2023-07-16T02:47:16;18.88;;;10.18;;
32780;SDS011;19136;47.032;15.502;2023-07-16T02:49:42;22.35;;;10.43;;
32780;SDS011;19136;47.032;15.502;2023-07-16T02:52:07;17.50;;;10.43;;
32780;SDS011;19136;47.032;15.502;2023-07-16T02:54:34;19.30;;;11.55;;
32780;SDS011;19136;47.032;15.502;2023-07-16T02:57:00;21.42;;;11.23;;
32780;SDS011;19136;47.032;15.502;2023-07-16T02:59:26;20.88;;;11.68;;
32780;SDS011;19136;47.032;15.502;2023-07-16T03:01:51;19.77;;;11.68;;
32780;SDS011;19136;47.032;15.502;2023-07-16T03:04:17;30.67;;;12.40;;
32780;SDS011;19136;47.032;15.502;2023-07-16T03:06:43;16.83;;;11.05;;
32780;SDS011;19136;47.032;15.502;2023-07-16T03:09:08;24.02;;;13.07;;
32780;SDS011;19136;47.032;15.502;2023-07-16T03:11:34;24.00;;;12.23;;
32780;SDS011;19136;47.032;15.502;2023-07-16T03:14:00;24.60;;;13.27;;
32780;SDS011;19136;47.032;15.502;2023-07-16T03:16:25;20.80;;;11.85;;
32780;SDS011;19136;47.032;15.502;2023-07-16T03:18:51;19.50;;;11.57;;
32780;SDS011;19136;47.032;15.502;2023-07-16T03:21:16;19.77;;;12.00;;
32780;SDS011;19136;47.032;15.502;2023-07-16T03:23:42;15.32;;;10.50;;
32780;SDS011;19136;47.032;15.502;2023-07-16T03:26:08;16.55;;;11.95;;
32780;SDS011;19136;47.032;15.502;2023-07-16T03:28:34;19.25;;;11.63;;
32780;SDS011;19136;47.032;15.502;2023-07-16T03:31:02;14.90;;;11.13;;
32780;SDS011;19136;47.032;15.502;2023-07-16T03:33:29;28.77;;;11.40;;
32780;SDS011;19136;47.032;15.502;2023-07-16T03:35:55;21.40;;;11.77;;
32780;SDS011;19136;47.032;15.502;2023-07-16T03:38:21;24.05;;;11.32;;
32780;SDS011;19136;47.032;15.502;2023-07-16T03:40:48;21.30;;;11.15;;
32780;SDS011;19136;47.032;15.502;2023-07-16T03:43:14;16.85;;;10.32;;
32780;SDS011;19136;47.032;15.502;2023-07-16T03:45:41;24.80;;;11.13;;
32780;SDS011;19136;47.032;15.502;2023-07-16T03:48:06;23.75;;;10.48;;
32780;SDS011;19136;47.032;15.502;2023-07-16T03:50:32;20.58;;;10.65;;
32780;SDS011;19136;47.032;15.502;2023-07-16T03:52:58;22.80;;;11.43;;
32780;SDS011;19136;47.032;15.502;2023-07-16T03:55:24;20.25;;;11.90;;
32780;SDS011;19136;47.032;15.502;2023-07-16T03:57:50;26.20;;;10.60;;
32780;SDS011;19136;47.032;15.502;2023-07-16T04:00:16;17.35;;;10.55;;
32780;SDS011;19136;47.032;15.502;2023-07-16T04:02:46;18.17;;;10.75;;
32780;SDS011;19136;47.032;15.502;2023-07-16T04:05:16;24.00;;;11.75;;
32780;SDS011;19136;47.032;15.502;2023-07-16T04:07:42;20.50;;;11.52;;
32780;SDS011;19136;47.032;15.502;2023-07-16T04:10:07;21.50;;;11.95;;
32780;SDS011;19136;47.032;15.502;2023-07-16T04:12:33;21.65;;;11.23;;
32780;SDS011;19136;47.032;15.502;2023-07-16T04:14:59;21.13;;;12.13;;
32780;SDS011;19136;47.032;15.502;2023-07-16T04:17:25;20.55;;;11.15;;
32780;SDS011;19136;47.032;15.502;2023-07-16T04:19:51;19.55;;;11.00;;
32780;SDS011;19136;47.032;15.502;2023-07-16T04:22:17;16.52;;;10.68;;
32780;SDS011;19136;47.032;15.502;2023-07-16T04:24:42;20.67;;;10.82;;
32780;SDS011;19136;47.032;15.502;2023-07-16T04:27:08;16.60;;;11.63;;
32780;SDS011;19136;47.032;15.502;2023-07-16T04:29:34;18.00;;;9.82;;
32780;SDS011;19136;47.032;15.502;2023-07-16T04:31:59;16.00;;;10.35;;
32780;SDS011;19136;47.032;15.502;2023-07-16T04:34:25;18.90;;;10.13;;
32780;SDS011;19136;47.032;15.502;2023-07-16T04:36:50;22.17;;;10.00;;
32780;SDS011;19136;47.032;15.502;2023-07-16T04:39:16;17.23;;;9.55;;
32780;SDS011;19136;47.032;15.502;2023-07-16T04:41:41;13.88;;;9.82;;
32780;SDS011;19136;47.032;15.502;2023-07-16T04:44:07;15.65;;;11.18;;
32780;SDS011;19136;47.032;15.502;2023-07-16T04:46:33;15.45;;;9.40;;
32780;SDS011;19136;47.032;15.502;2023-07-16T04:48:59;22.52;;;9.43;;
32780;SDS011;19136;47.032;15.502;2023-07-16T04:51:25;14.25;;;9.55;;
32780;SDS011;19136;47.032;15.502;2023-07-16T04:53:50;15.85;;;9.05;;
32780;SDS011;19136;47.032;15.502;2023-07-16T04:56:16;18.85;;;9.75;;
32780;SDS011;19136;47.032;15.502;2023-07-16T04:58:42;12.63;;;9.10;;
32780;SDS011;19136;47.032;15.502;2023-07-16T05:01:08;13.50;;;8.85;;
32780;SDS011;19136;47.032;15.502;2023-07-16T05:03:34;15.07;;;9.45;;
32780;SDS011;19136;47.032;15.502;2023-07-16T05:05:59;15.82;;;9.05;;
32780;SDS011;19136;47.032;15.502;2023-07-16T05:08:25;14.90;;;8.82;;
32780;SDS011;19136;47.032;15.502;2023-07-16T05:10:51;15.20;;;9.20;;
32780;SDS011;19136;47.032;15.502;2023-07-16T05:13:16;12.98;;;8.52;;
32780;SDS011;19136;47.032;15.502;2023-07-16T05:15:45;16.58;;;9.35;;
32780;SDS011;19136;47.032;15.502;2023-07-16T05:18:11;12.82;;;8.27;;
32780;SDS011;19136;47.032;15.502;2023-07-16T05:20:36;13.13;;;8.27;;
32780;SDS011;19136;47.032;15.502;2023-07-16T05:23:02;11.52;;;8.68;;
32780;SDS011;19136;47.032;15.502;2023-07-16T05:25:27;12.23;;;7.88;;
32780;SDS011;19136;47.032;15.502;2023-07-16T05:27:53;13.60;;;8.63;;
32780;SDS011;19136;47.032;15.502;2023-07-16T05:30:19;17.33;;;8.63;;
32780;SDS011;19136;47.032;15.502;2023-07-16T05:32:44;12.90;;;8.00;;
32780;SDS011;19136;47.032;15.502;2023-07-16T05:35:10;11.30;;;7.55;;
32780;SDS011;19136;47.032;15.502;2023-07-16T05:37:35;17.40;;;8.15;;
32780;SDS011;19136;47.032;15.502;2023-07-16T05:40:01;12.55;;;8.13;;
32780;SDS011;19136;47.032;15.502;2023-07-16T05:42:28;11.00;;;7.95;;
32780;SDS011;19136;47.032;15.502;2023-07-16T05:44:54;11.90;;;7.68;;
32780;SDS011;19136;47.032;15.502;2023-07-16T05:47:20;16.05;;;7.75;;
32780;SDS011;19136;47.032;15.502;2023-07-16T05:49:46;15.30;;;7.10;;
32780;SDS011;19136;47.032;15.502;2023-07-16T05:52:12;15.63;;;7.55;;
32780;SDS011;19136;47.032;15.502;2023-07-16T05:54:38;15.00;;;8.18;;
32780;SDS011;19136;47.032;15.502;2023-07-16T05:57:04;14.90;;;8.80;;
32780;SDS011;19136;47.032;15.502;2023-07-16T05:59:30;19.08;;;8.02;;
32780;SDS011;19136;47.032;15.502;2023-07-16T06:01:59;11.25;;;6.70;;
32780;SDS011;19136;47.032;15.502;2023-07-16T06:04:25;11.15;;;7.68;;
32780;SDS011;19136;47.032;15.502;2023-07-16T06:06:50;14.07;;;7.35;;
32780;SDS011;19136;47.032;15.502;2023-07-16T06:09:16;11.60;;;7.10;;
32780;SDS011;19136;47.032;15.502;2023-07-16T06:11:41;10.75;;;6.70;;
32780;SDS011;19136;47.032;15.502;2023-07-16T06:14:08;9.90;;;6.70;;
32780;SDS011;19136;47.032;15.502;2023-07-16T06:16:33;10.85;;;7.15;;
32780;SDS011;19136;47.032;15.502;2023-07-16T06:18:59;14.82;;;7.40;;
32780;SDS011;19136;47.032;15.502;2023-07-16T06:21:24;19.35;;;7.07;;
32780;SDS011;19136;47.032;15.502;2023-07-16T06:23:50;15.10;;;7.60;;
32780;SDS011;19136;47.032;15.502;2023-07-16T06:26:16;16.23;;;7.50;;
32780;SDS011;19136;47.032;15.502;2023-07-16T06:28:41;11.85;;;6.53;;
32780;SDS011;19136;47.032;15.502;2023-07-16T06:31:07;15.73;;;6.55;;
32780;SDS011;19136;47.032;15.502;2023-07-16T06:33:32;14.15;;;6.70;;
32780;SDS011;19136;47.032;15.502;2023-07-16T06:35:58;10.02;;;6.60;;
32780;SDS011;19136;47.032;15.502;2023-07-16T06:38:23;11.02;;;6.45;;
32780;SDS011;19136;47.032;15.502;2023-07-16T06:40:49;10.38;;;6.60;;
32780;SDS011;19136;47.032;15.502;2023-07-16T06:43:16;8.95;;;6.32;;
32780;SDS011;19136;47.032;15.502;2023-07-16T06:45:42;11.93;;;6.32;;
32780;SDS011;19136;47.032;15.502;2023-07-16T06:48:08;13.60;;;6.85;;
32780;SDS011;19136;47.032;15.502;2023-07-16T06:50:33;14.75;;;7.05;;
32780;SDS011;19136;47.032;15.502;2023-07-16T06:52:59;10.30;;;6.88;;
32780;SDS011;19136;47.032;15.502;2023-07-16T06:55:25;14.13;;;7.00;;
32780;SDS011;19136;47.032;15.502;2023-07-16T06:57:50;12.70;;;7.30;;
32780;SDS011;19136;47.032;15.502;2023-07-16T07:00:16;15.35;;;7.63;;
32780;SDS011;19136;47.032;15.502;2023-07-16T07:02:42;8.52;;;6.28;;
32780;SDS011;19136;47.032;15.502;2023-07-16T07:05:07;11.75;;;6.10;;
32780;SDS011;19136;47.032;15.502;2023-07-16T07:07:33;11.05;;;6.35;;
32780;SDS011;19136;47.032;15.502;2023-07-16T07:09:59;12.68;;;5.70;;
32780;SDS011;19136;47.032;15.502;2023-07-16T07:12:24;11.70;;;5.32;;
32780;SDS011;19136;47.032;15.502;2023-07-16T07:14:50;10.40;;;4.63;;
32780;SDS011;19136;47.032;15.502;2023-07-16T07:17:16;9.52;;;4.60;;
32780;SDS011;19136;47.032;15.502;2023-07-16T07:19:41;7.18;;;4.60;;
32780;SDS011;19136;47.032;15.502;2023-07-16T07:22:08;12.60;;;5.15;;
32780;SDS011;19136;47.032;15.502;2023-07-16T07:24:34;9.23;;;4.53;;
32780;SDS011;19136;47.032;15.502;2023-07-16T07:26:59;10.82;;;5.18;;
32780;SDS011;19136;47.032;15.502;2023-07-16T07:29:25;10.70;;;5.30;;
32780;SDS011;19136;47.032;15.502;2023-07-16T07:31:52;8.55;;;4.40;;
32780;SDS011;19136;47.032;15.502;2023-07-16T07:34:17;8.38;;;4.63;;
32780;SDS011;19136;47.032;15.502;2023-07-16T07:36:43;7.10;;;4.20;;
32780;SDS011;19136;47.032;15.502;2023-07-16T07:39:09;7.05;;;4.03;;
32780;SDS011;19136;47.032;15.502;2023-07-16T07:41:35;4.63;;;3.67;;
32780;SDS011;19136;47.032;15.502;2023-07-16T07:44:00;8.40;;;4.10;;
32780;SDS011;19136;47.032;15.502;2023-07-16T07:46:26;12.73;;;4.85;;
32780;SDS011;19136;47.032;15.502;2023-07-16T07:48:52;8.23;;;5.00;;
32780;SDS011;19136;47.032;15.502;2023-07-16T07:51:17;7.28;;;5.32;;
32780;SDS011;19136;47.032;15.502;2023-07-16T07:53:43;7.28;;;5.40;;
32780;SDS011;19136;47.032;15.502;2023-07-16T07:56:08;8.63;;;4.43;;
32780;SDS011;19136;47.032;15.502;2023-07-16T07:58:34;7.60;;;4.47;;
32780;SDS011;19136;47.032;15.502;2023-07-16T08:01:04;8.77;;;4.35;;
32780;SDS011;19136;47.032;15.502;2023-07-16T08:03:31;7.93;;;4.82;;
32780;SDS011;19136;47.032;15.502;2023-07-16T08:05:56;11.25;;;5.30;;
32780;SDS011;19136;47.032;15.502;2023-07-16T08:08:22;8.05;;;4.90;;
32780;SDS011;19136;47.032;15.502;2023-07-16T08:10:47;7.72;;;4.30;;
32780;SDS011;19136;47.032;15.502;2023-07-16T08:13:13;9.88;;;4.75;;
32780;SDS011;19136;47.032;15.502;2023-07-16T08:15:39;6.20;;;4.30;;
32780;SDS011;19136;47.032;15.502;2023-07-16T08:18:04;6.00;;;4.03;;
32780;SDS011;19136;47.032;15.502;2023-07-16T08:20:30;9.10;;;3.92;;
32780;SDS011;19136;47.032;15.502;2023-07-16T08:22:55;5.55;;;4.18;;
32780;SDS011;19136;47.032;15.502;2023-07-16T08:25:21;6.85;;;4.15;;
32780;SDS011;19136;47.032;15.502;2023-07-16T08:27:47;7.97;;;4.07;;
32780;SDS011;19136;47.032;15.502;2023-07-16T08:30:13;6.07;;;3.92;;
32780;SDS011;19136;47.032;15.502;2023-07-16T08:32:38;10.10;;;4.07;;
32780;SDS011;19136;47.032;15.502;2023-07-16T08:35:04;5.97;;;3.60;;
32780;SDS011;19136;47.032;15.502;2023-07-16T08:37:30;10.27;;;4.50;;
32780;SDS011;19136;47.032;15.502;2023-07-16T08:39:56;6.85;;;3.95;;
32780;SDS011;19136;47.032;15.502;2023-07-16T08:42:21;5.82;;;3.85;;
32780;SDS011;19136;47.032;15.502;2023-07-16T08:44:48;5.00;;;3.42;;
32780;SDS011;19136;47.032;15.502;2023-07-16T08:47:14;10.45;;;4.28;;
32780;SDS011;19136;47.032;15.502;2023-07-16T08:49:40;8.07;;;4.20;;
32780;SDS011;19136;47.032;15.502;2023-07-16T08:52:06;9.38;;;3.60;;
32780;SDS011;19136;47.032;15.502;2023-07-16T08:54:32;7.03;;;3.85;;
32780;SDS011;19136;47.032;15.502;2023-07-16T08:56:57;8.57;;;3.78;;
32780;SDS011;19136;47.032;15.502;2023-07-16T08:59:23;7.18;;;3.60;;
32780;SDS011;19136;47.032;15.502;2023-07-16T09:01:53;7.97;;;3.78;;
32780;SDS011;19136;47.032;15.502;2023-07-16T09:04:21;7.95;;;4.05;;
32780;SDS011;19136;47.032;15.502;2023-07-16T09:06:47;9.43;;;4.05;;
32780;SDS011;19136;47.032;15.502;2023-07-16T09:09:22;7.80;;;4.13;;
32780;SDS011;19136;47.032;15.502;2023-07-16T09:11:52;5.47;;;3.60;;
32780;SDS011;19136;47.032;15.502;2023-07-16T09:14:19;9.23;;;3.55;;
32780;SDS011;19136;47.032;15.502;2023-07-16T09:16:52;11.35;;;4.13;;
32780;SDS011;19136;47.032;15.502;2023-07-16T09:19:18;6.90;;;3.60;;
32780;SDS011;19136;47.032;15.502;2023-07-16T09:21:47;4.57;;;3.47;;
32780;SDS011;19136;47.032;15.502;2023-07-16T09:24:16;7.85;;;4.60;;
32780;SDS011;19136;47.032;15.502;2023-07-16T09:26:49;10.13;;;4.20;;
32780;SDS011;19136;47.032;15.502;2023-07-16T09:29:16;5.07;;;3.70;;
32780;SDS011;19136;47.032;15.502;2023-07-16T09:31:52;7.88;;;3.80;;
32780;SDS011;19136;47.032;15.502;2023-07-16T09:34:21;9.18;;;4.30;;
32780;SDS011;19136;47.032;15.502;2023-07-16T09:36:47;8.27;;;4.05;;
32780;SDS011;19136;47.032;15.502;2023-07-16T09:39:17;6.38;;;3.60;;
32780;SDS011;19136;47.032;15.502;2023-07-16T09:44:13;5.18;;;3.42;;
32780;SDS011;19136;47.032;15.502;2023-07-16T09:46:38;5.47;;;3.70;;
32780;SDS011;19136;47.032;15.502;2023-07-16T09:49:05;4.50;;;3.50;;
32780;SDS011;19136;47.032;15.502;2023-07-16T09:51:31;5.63;;;3.55;;
32780;SDS011;19136;47.032;15.502;2023-07-16T09:53:57;6.00;;;3.47;;
32780;SDS011;19136;47.032;15.502;2023-07-16T09:56:26;5.55;;;3.80;;
32780;SDS011;19136;47.032;15.502;2023-07-16T09:58:59;9.60;;;3.78;;
32780;SDS011;19136;47.032;15.502;2023-07-16T10:01:25;10.40;;;3.63;;
32780;SDS011;19136;47.032;15.502;2023-07-16T10:03:52;5.63;;;4.03;;
32780;SDS011;19136;47.032;15.502;2023-07-16T10:06:18;7.30;;;3.40;;
32780;SDS011;19136;47.032;15.502;2023-07-16T10:08:48;7.13;;;3.30;;
32780;SDS011;19136;47.032;15.502;2023-07-16T10:11:15;8.60;;;3.58;;
32780;SDS011;19136;47.032;15.502;2023-07-16T10:13:42;3.95;;;3.47;;
32780;SDS011;19136;47.032;15.502;2023-07-16T10:16:08;6.50;;;3.70;;
32780;SDS011;19136;47.032;15.502;2023-07-16T10:18:36;6.18;;;3.92;;
32780;SDS011;19136;47.032;15.502;2023-07-16T10:21:03;3.70;;;3.33;;
32780;SDS011;19136;47.032;15.502;2023-07-16T10:26:08;3.67;;;3.33;;
32780;SDS011;19136;47.032;15.502;2023-07-16T10:28:35;10.00;;;3.95;;
32780;SDS011;19136;47.032;15.502;2023-07-16T10:31:01;4.93;;;3.45;;
32780;SDS011;19136;47.032;15.502;2023-07-16T10:33:27;6.00;;;3.38;;
32780;SDS011;19136;47.032;15.502;2023-07-16T10:35:53;8.35;;;4.03;;
32780;SDS011;19136;47.032;15.502;2023-07-16T10:38:22;8.07;;;3.90;;
32780;SDS011;19136;47.032;15.502;2023-07-16T10:40:47;6.68;;;3.60;;
32780;SDS011;19136;47.032;15.502;2023-07-16T10:43:13;7.28;;;3.72;;
32780;SDS011;19136;47.032;15.502;2023-07-16T10:45:39;6.72;;;3.72;;
32780;SDS011;19136;47.032;15.502;2023-07-16T10:48:06;7.93;;;4.13;;
32780;SDS011;19136;47.032;15.502;2023-07-16T10:50:32;6.22;;;3.75;;
32780;SDS011;19136;47.032;15.502;2023-07-16T10:53:02;7.40;;;3.97;;
32780;SDS011;19136;47.032;15.502;2023-07-16T10:55:28;5.53;;;3.88;;
32780;SDS011;19136;47.032;15.502;2023-07-16T10:57:54;5.38;;;3.78;;
32780;SDS011;19136;47.032;15.502;2023-07-16T11:00:21;8.25;;;3.90;;
32780;SDS011;19136;47.032;15.502;2023-07-16T11:02:48;5.40;;;4.05;;
32780;SDS011;19136;47.032;15.502;2023-07-16T11:05:15;6.43;;;4.10;;
32780;SDS011;19136;47.032;15.502;2023-07-16T11:07:44;7.85;;;4.18;;
32780;SDS011;19136;47.032;15.502;2023-07-16T11:10:16;6.78;;;4.25;;
32780;SDS011;19136;47.032;15.502;2023-07-16T11:12:42;11.52;;;4.00;;
32780;SDS011;19136;47.032;15.502;2023-07-16T11:15:08;9.20;;;3.90;;
32780;SDS011;19136;47.032;15.502;2023-07-16T11:17:36;9.00;;;4.15;;
32780;SDS011;19136;47.032;15.502;2023-07-16T11:20:03;7.25;;;3.80;;
32780;SDS011;19136;47.032;15.502;2023-07-16T11:22:30;7.70;;;4.10;;
32780;SDS011;19136;47.032;15.502;2023-07-16T11:24:55;6.40;;;3.95;;
32780;SDS011;19136;47.032;15.502;2023-07-16T11:27:23;8.15;;;3.97;;
32780;SDS011;19136;47.032;15.502;2023-07-16T11:29:51;7.80;;;4.20;;
32780;SDS011;19136;47.032;15.502;2023-07-16T11:35:04;11.70;;;4.18;;
32780;SDS011;19136;47.032;15.502;2023-07-16T11:37:31;7.50;;;4.32;;
32780;SDS011;19136;47.032;15.502;2023-07-16T11:40:02;5.38;;;4.05;;
32780;SDS011;19136;47.032;15.502;2023-07-16T11:42:32;5.40;;;4.15;;
32780;SDS011;19136;47.032;15.502;2023-07-16T11:44:59;6.38;;;3.90;;
32780;SDS011;19136;47.032;15.502;2023-07-16T11:47:25;6.43;;;3.80;;
32780;SDS011;19136;47.032;15.502;2023-07-16T11:49:51;4.78;;;3.72;;
32780;SDS011;19136;47.032;15.502;2023-07-16T11:52:21;7.10;;;3.80;;
32780;SDS011;19136;47.032;15.502;2023-07-16T11:54:48;5.28;;;4.05;;
32780;SDS011;19136;47.032;15.502;2023-07-16T11:57:15;5.50;;;3.83;;
32780;SDS011;19136;47.032;15.502;2023-07-16T11:59:41;5.22;;;4.00;;
32780;SDS011;19136;47.032;15.502;2023-07-16T12:02:06;6.43;;;4.82;;
32780;SDS011;19136;47.032;15.502;2023-07-16T12:04:32;6.18;;;4.13;;
32780;SDS011;19136;47.032;15.502;2023-07-16T12:06:58;5.82;;;4.32;;
32780;SDS011;19136;47.032;15.502;2023-07-16T12:09:23;5.97;;;3.75;;
32780;SDS011;19136;47.032;15.502;2023-07-16T12:11:49;6.80;;;4.20;;
32780;SDS011;19136;47.032;15.502;2023-07-16T12:14:14;5.45;;;3.65;;
32780;SDS011;19136;47.032;15.502;2023-07-16T12:16:40;6.50;;;4.15;;
32780;SDS011;19136;47.032;15.502;2023-07-16T12:19:07;4.80;;;4.00;;
32780;SDS011;19136;47.032;15.502;2023-07-16T12:21:33;7.82;;;3.65;;
32780;SDS011;19136;47.032;15.502;2023-07-16T12:23:59;5.15;;;4.00;;
32780;SDS011;19136;47.032;15.502;2023-07-16T12:26:25;5.15;;;4.15;;
32780;SDS011;19136;47.032;15.502;2023-07-16T12:28:50;8.65;;;4.22;;
32780;SDS011;19136;47.032;15.502;2023-07-16T12:31:16;7.65;;;4.03;;
32780;SDS011;19136;47.032;15.502;2023-07-16T12:33:42;7.20;;;3.75;;
32780;SDS011;19136;47.032;15.502;2023-07-16T12:36:08;6.47;;;3.72;;
32780;SDS011;19136;47.032;15.502;2023-07-16T12:38:35;4.80;;;3.72;;
32780;SDS011;19136;47.032;15.502;2023-07-16T12:41:01;6.97;;;3.97;;
32780;SDS011;19136;47.032;15.502;2023-07-16T12:43:26;7.07;;;3.88;;
32780;SDS011;19136;47.032;15.502;2023-07-16T12:45:52;9.27;;;4.30;;
32780;SDS011;19136;47.032;15.502;2023-07-16T12:48:18;10.75;;;4.28;;
32780;SDS011;19136;47.032;15.502;2023-07-16T12:50:43;8.27;;;4.30;;
32780;SDS011;19136;47.032;15.502;2023-07-16T12:53:09;5.95;;;3.97;;
32780;SDS011;19136;47.032;15.502;2023-07-16T12:55:35;10.23;;;5.10;;
32780;SDS011;19136;47.032;15.502;2023-07-16T12:58:01;6.82;;;4.50;;
32780;SDS011;19136;47.032;15.502;2023-07-16T13:00:26;9.02;;;4.95;;
32780;SDS011;19136;47.032;15.502;2023-07-16T13:02:53;6.30;;;5.00;;
32780;SDS011;19136;47.032;15.502;2023-07-16T13:05:19;8.52;;;4.82;;
32780;SDS011;19136;47.032;15.502;2023-07-16T13:07:46;5.38;;;4.10;;
32780;SDS011;19136;47.032;15.502;2023-07-16T13:10:12;9.50;;;4.85;;
32780;SDS011;19136;47.032;15.502;2023-07-16T13:12:38;6.32;;;4.60;;
32780;SDS011;19136;47.032;15.502;2023-07-16T13:15:04;6.07;;;3.95;;
32780;SDS011;19136;47.032;15.502;2023-07-16T13:17:31;9.70;;;4.13;;
32780;SDS011;19136;47.032;15.502;2023-07-16T13:19:57;5.32;;;4.38;;
32780;SDS011;19136;47.032;15.502;2023-07-16T13:22:23;8.43;;;4.30;;
32780;SDS011;19136;47.032;15.502;2023-07-16T13:24:50;8.57;;;4.53;;
32780;SDS011;19136;47.032;15.502;2023-07-16T13:27:23;6.97;;;4.00;;
32780;SDS011;19136;47.032;15.502;2023-07-16T13:29:50;8.32;;;4.30;;
32780;SDS011;19136;47.032;15.502;2023-07-16T13:32:16;5.32;;;4.03;;
32780;SDS011;19136;47.032;15.502;2023-07-16T13:34:43;8.55;;;3.97;;
32780;SDS011;19136;47.032;15.502;2023-07-16T13:37:10;5.13;;;4.30;;
32780;SDS011;19136;47.032;15.502;2023-07-16T13:39:36;8.23;;;4.40;;
32780;SDS011;19136;47.032;15.502;2023-07-16T13:42:03;10.25;;;4.68;;
32780;SDS011;19136;47.032;15.502;2023-07-16T13:44:32;9.30;;;4.80;;
32780;SDS011;19136;47.032;15.502;2023-07-16T13:46:59;9.93;;;4.78;;
32780;SDS011;19136;47.032;15.502;2023-07-16T13:49:26;10.23;;;4.68;;
32780;SDS011;19136;47.032;15.502;2023-07-16T13:51:52;7.43;;;5.13;;
32780;SDS011;19136;47.032;15.502;2023-07-16T13:54:19;8.68;;;4.68;;
32780;SDS011;19136;47.032;15.502;2023-07-16T13:56:46;8.88;;;5.00;;
32780;SDS011;19136;47.032;15.502;2023-07-16T13:59:12;10.48;;;4.95;;
32780;SDS011;19136;47.032;15.502;2023-07-16T14:01:40;9.60;;;5.28;;
32780;SDS011;19136;47.032;15.502;2023-07-16T14:04:07;6.28;;;4.80;;
32780;SDS011;19136;47.032;15.502;2023-07-16T14:06:34;10.68;;;4.90;;
32780;SDS011;19136;47.032;15.502;2023-07-16T14:09:00;6.93;;;4.80;;
32780;SDS011;19136;47.032;15.502;2023-07-16T14:11:27;7.60;;;5.65;;
32780;SDS011;19136;47.032;15.502;2023-07-16T14:13:54;13.23;;;5.15;;
32780;SDS011;19136;47.032;15.502;2023-07-16T14:16:20;7.40;;;4.68;;
32780;SDS011;19136;47.032;15.502;2023-07-16T14:18:51;12.02;;;4.82;;
32780;SDS011;19136;47.032;15.502;2023-07-16T14:21:19;9.15;;;5.18;;
32780;SDS011;19136;47.032;15.502;2023-07-16T14:23:46;6.15;;;5.03;;
32780;SDS011;19136;47.032;15.502;2023-07-16T14:26:12;8.05;;;5.05;;
32780;SDS011;19136;47.032;15.502;2023-07-16T14:28:39;9.13;;;4.72;;
32780;SDS011;19136;47.032;15.502;2023-07-16T14:31:05;9.63;;;4.85;;
32780;SDS011;19136;47.032;15.502;2023-07-16T14:33:32;6.05;;;4.65;;